sensor_id;sensor_type;location;lat;lon;timestamp;P1;durP1;ratioP1;P2;durP2;ratioP2
15595;SDS011;7898;48.658;9.068;2022-10-17T00:00:09;7.78;;;4.93;;
15595;SDS011;7898;48.658;9.068;2022-10-17T00:02:37;7.03;;;5.07;;
15595;SDS011;7898;48.658;9.068;2022-10-17T00:05:04;8.63;;;6.35;;
15595;SDS011;7898;48.658;9.068;2022-10-17T00:07:31;9.48;;;5.60;;
15595;SDS011;7898;48.658;9.068;2022-10-17T00:10:00;10.23;;;6.00;;
15595;SDS011;7898;48.658;9.068;2022-10-17T00:12:27;7.82;;;5.85;;
15595;SDS011;7898;48.658;9.068;2022-10-17T00:15:01;10.10;;;6.28;;
15595;SDS011;7898;48.658;9.068;2022-10-17T00:17:28;9.80;;;5.78;;
15595;SDS011;7898;48.658;9.068;2022-10-17T00:19:57;11.75;;;6.15;;
15595;SDS011;7898;48.658;9.068;2022-10-17T00:22:28;10.48;;;5.65;;
15595;SDS011;7898;48.658;9.068;2022-10-17T00:24:55;10.13;;;5.50;;
15595;SDS011;7898;48.658;9.068;2022-10-17T00:27:23;8.90;;;4.40;;
15595;SDS011;7898;48.658;9.068;2022-10-17T00:29:52;12.27;;;5.10;;
15595;SDS011;7898;48.658;9.068;2022-10-17T00:32:19;6.13;;;4.28;;
15595;SDS011;7898;48.658;9.068;2022-10-17T00:34:47;6.40;;;4.50;;
15595;SDS011;7898;48.658;9.068;2022-10-17T00:37:14;7.38;;;4.38;;
15595;SDS011;7898;48.658;9.068;2022-10-17T00:39:41;9.13;;;5.03;;
15595;SDS011;7898;48.658;9.068;2022-10-17T00:42:09;7.45;;;4.63;;
15595;SDS011;7898;48.658;9.068;2022-10-17T00:45:02;8.82;;;4.68;;
15595;SDS011;7898;48.658;9.068;2022-10-17T00:47:33;9.18;;;4.60;;
15595;SDS011;7898;48.658;9.068;2022-10-17T00:50:01;6.83;;;4.53;;
15595;SDS011;7898;48.658;9.068;2022-10-17T00:52:29;8.60;;;4.63;;
15595;SDS011;7898;48.658;9.068;2022-10-17T00:54:57;5.90;;;4.40;;
15595;SDS011;7898;48.658;9.068;2022-10-17T00:57:27;7.30;;;4.80;;
15595;SDS011;7898;48.658;9.068;2022-10-17T00:59:56;6.63;;;4.18;;
15595;SDS011;7898;48.658;9.068;2022-10-17T01:02:27;7.27;;;4.23;;
15595;SDS011;7898;48.658;9.068;2022-10-17T01:04:54;10.33;;;4.57;;
15595;SDS011;7898;48.658;9.068;2022-10-17T01:07:23;6.37;;;4.03;;
15595;SDS011;7898;48.658;9.068;2022-10-17T01:09:51;8.27;;;4.57;;
15595;SDS011;7898;48.658;9.068;2022-10-17T01:12:19;7.37;;;4.23;;
15595;SDS011;7898;48.658;9.068;2022-10-17T01:14:52;7.70;;;4.50;;
15595;SDS011;7898;48.658;9.068;2022-10-17T01:17:31;10.88;;;4.85;;
15595;SDS011;7898;48.658;9.068;2022-10-17T01:23:17;7.70;;;4.93;;
15595;SDS011;7898;48.658;9.068;2022-10-17T01:26:04;6.40;;;4.17;;
15595;SDS011;7898;48.658;9.068;2022-10-17T01:28:51;7.17;;;4.53;;
15595;SDS011;7898;48.658;9.068;2022-10-17T01:31:42;11.53;;;4.70;;
15595;SDS011;7898;48.658;9.068;2022-10-17T01:34:14;7.28;;;4.30;;
15595;SDS011;7898;48.658;9.068;2022-10-17T01:36:47;6.03;;;4.13;;
15595;SDS011;7898;48.658;9.068;2022-10-17T01:39:19;9.98;;;4.43;;
15595;SDS011;7898;48.658;9.068;2022-10-17T01:42:00;5.70;;;3.35;;
15595;SDS011;7898;48.658;9.068;2022-10-17T01:44:35;9.97;;;4.50;;
15595;SDS011;7898;48.658;9.068;2022-10-17T01:47:16;9.90;;;4.17;;
15595;SDS011;7898;48.658;9.068;2022-10-17T01:49:46;7.40;;;4.03;;
15595;SDS011;7898;48.658;9.068;2022-10-17T01:52:18;7.00;;;3.40;;
15595;SDS011;7898;48.658;9.068;2022-10-17T01:54:48;9.00;;;4.20;;
15595;SDS011;7898;48.658;9.068;2022-10-17T01:57:22;10.30;;;4.27;;
15595;SDS011;7898;48.658;9.068;2022-10-17T01:59:55;6.17;;;3.70;;
15595;SDS011;7898;48.658;9.068;2022-10-17T02:02:24;8.57;;;4.10;;
15595;SDS011;7898;48.658;9.068;2022-10-17T02:04:52;7.03;;;4.40;;
15595;SDS011;7898;48.658;9.068;2022-10-17T02:07:21;7.83;;;3.83;;
15595;SDS011;7898;48.658;9.068;2022-10-17T02:09:48;7.47;;;3.70;;
15595;SDS011;7898;48.658;9.068;2022-10-17T02:12:20;7.93;;;3.63;;
15595;SDS011;7898;48.658;9.068;2022-10-17T02:15:06;7.20;;;4.10;;
15595;SDS011;7898;48.658;9.068;2022-10-17T02:17:43;4.70;;;4.10;;
15595;SDS011;7898;48.658;9.068;2022-10-17T02:20:16;9.77;;;4.37;;
15595;SDS011;7898;48.658;9.068;2022-10-17T02:22:48;6.37;;;4.40;;
15595;SDS011;7898;48.658;9.068;2022-10-17T02:25:23;6.90;;;4.00;;
15595;SDS011;7898;48.658;9.068;2022-10-17T02:27:59;7.00;;;3.80;;
15595;SDS011;7898;48.658;9.068;2022-10-17T02:30:32;8.27;;;3.80;;
15595;SDS011;7898;48.658;9.068;2022-10-17T02:33:06;6.53;;;3.60;;
15595;SDS011;7898;48.658;9.068;2022-10-17T02:35:39;6.80;;;3.70;;
15595;SDS011;7898;48.658;9.068;2022-10-17T02:38:08;4.87;;;4.20;;
15595;SDS011;7898;48.658;9.068;2022-10-17T02:40:37;6.47;;;4.83;;
15595;SDS011;7898;48.658;9.068;2022-10-17T02:43:05;9.30;;;6.60;;
15595;SDS011;7898;48.658;9.068;2022-10-17T02:45:33;11.07;;;7.20;;
15595;SDS011;7898;48.658;9.068;2022-10-17T02:48:03;12.67;;;6.33;;
15595;SDS011;7898;48.658;9.068;2022-10-17T02:50:37;7.03;;;5.87;;
15595;SDS011;7898;48.658;9.068;2022-10-17T02:53:14;7.63;;;5.57;;
15595;SDS011;7898;48.658;9.068;2022-10-17T02:55:49;5.27;;;4.63;;
15595;SDS011;7898;48.658;9.068;2022-10-17T02:58:19;11.47;;;5.77;;
15595;SDS011;7898;48.658;9.068;2022-10-17T03:00:50;6.10;;;4.80;;
15595;SDS011;7898;48.658;9.068;2022-10-17T03:03:21;7.73;;;4.63;;
15595;SDS011;7898;48.658;9.068;2022-10-17T03:05:49;8.97;;;4.57;;
15595;SDS011;7898;48.658;9.068;2022-10-17T03:08:17;8.97;;;4.27;;
15595;SDS011;7898;48.658;9.068;2022-10-17T03:10:44;5.33;;;3.93;;
15595;SDS011;7898;48.658;9.068;2022-10-17T03:13:12;6.73;;;4.50;;
15595;SDS011;7898;48.658;9.068;2022-10-17T03:15:39;4.93;;;3.93;;
15595;SDS011;7898;48.658;9.068;2022-10-17T03:18:06;8.87;;;3.83;;
15595;SDS011;7898;48.658;9.068;2022-10-17T03:20:35;5.93;;;3.93;;
15595;SDS011;7898;48.658;9.068;2022-10-17T03:23:02;6.63;;;3.17;;
15595;SDS011;7898;48.658;9.068;2022-10-17T03:25:29;5.87;;;3.53;;
15595;SDS011;7898;48.658;9.068;2022-10-17T03:27:56;5.77;;;3.20;;
15595;SDS011;7898;48.658;9.068;2022-10-17T03:30:24;5.00;;;3.37;;
15595;SDS011;7898;48.658;9.068;2022-10-17T03:32:51;8.43;;;3.57;;
15595;SDS011;7898;48.658;9.068;2022-10-17T03:35:18;11.20;;;5.10;;
15595;SDS011;7898;48.658;9.068;2022-10-17T03:37:46;10.37;;;6.37;;
15595;SDS011;7898;48.658;9.068;2022-10-17T03:40:13;9.57;;;6.63;;
15595;SDS011;7898;48.658;9.068;2022-10-17T03:42:43;9.57;;;5.80;;
15595;SDS011;7898;48.658;9.068;2022-10-17T03:45:10;11.60;;;4.70;;
15595;SDS011;7898;48.658;9.068;2022-10-17T03:47:37;11.40;;;5.33;;
15595;SDS011;7898;48.658;9.068;2022-10-17T03:50:04;8.73;;;4.60;;
15595;SDS011;7898;48.658;9.068;2022-10-17T03:52:32;6.47;;;4.27;;
15595;SDS011;7898;48.658;9.068;2022-10-17T03:55:00;5.37;;;3.70;;
15595;SDS011;7898;48.658;9.068;2022-10-17T03:57:27;7.23;;;3.73;;
15595;SDS011;7898;48.658;9.068;2022-10-17T03:59:54;7.70;;;3.90;;
15595;SDS011;7898;48.658;9.068;2022-10-17T04:02:21;8.43;;;3.90;;
15595;SDS011;7898;48.658;9.068;2022-10-17T04:04:48;7.30;;;4.60;;
15595;SDS011;7898;48.658;9.068;2022-10-17T04:07:15;8.03;;;4.80;;
15595;SDS011;7898;48.658;9.068;2022-10-17T04:09:42;8.87;;;5.07;;
15595;SDS011;7898;48.658;9.068;2022-10-17T04:12:10;6.17;;;4.43;;
15595;SDS011;7898;48.658;9.068;2022-10-17T04:14:37;6.37;;;4.07;;
15595;SDS011;7898;48.658;9.068;2022-10-17T04:17:04;5.87;;;4.10;;
15595;SDS011;7898;48.658;9.068;2022-10-17T04:19:31;7.57;;;4.60;;
15595;SDS011;7898;48.658;9.068;2022-10-17T04:21:59;6.50;;;4.20;;
15595;SDS011;7898;48.658;9.068;2022-10-17T04:24:27;8.27;;;4.20;;
15595;SDS011;7898;48.658;9.068;2022-10-17T04:26:54;7.63;;;4.10;;
15595;SDS011;7898;48.658;9.068;2022-10-17T04:29:22;5.90;;;4.10;;
15595;SDS011;7898;48.658;9.068;2022-10-17T04:31:50;8.90;;;4.80;;
15595;SDS011;7898;48.658;9.068;2022-10-17T04:34:17;7.47;;;3.90;;
15595;SDS011;7898;48.658;9.068;2022-10-17T04:36:44;4.13;;;3.60;;
15595;SDS011;7898;48.658;9.068;2022-10-17T04:39:11;7.63;;;3.90;;
15595;SDS011;7898;48.658;9.068;2022-10-17T04:41:38;5.27;;;3.80;;
15595;SDS011;7898;48.658;9.068;2022-10-17T04:44:05;7.00;;;3.30;;
15595;SDS011;7898;48.658;9.068;2022-10-17T04:46:34;10.03;;;4.53;;
15595;SDS011;7898;48.658;9.068;2022-10-17T04:49:01;5.70;;;4.23;;
15595;SDS011;7898;48.658;9.068;2022-10-17T04:51:28;7.50;;;4.00;;
15595;SDS011;7898;48.658;9.068;2022-10-17T04:53:55;6.60;;;3.80;;
15595;SDS011;7898;48.658;9.068;2022-10-17T04:56:23;11.30;;;4.00;;
15595;SDS011;7898;48.658;9.068;2022-10-17T04:58:50;6.07;;;4.40;;
15595;SDS011;7898;48.658;9.068;2022-10-17T05:01:18;6.70;;;4.27;;
15595;SDS011;7898;48.658;9.068;2022-10-17T05:03:47;8.23;;;3.90;;
15595;SDS011;7898;48.658;9.068;2022-10-17T05:06:15;6.20;;;4.13;;
15595;SDS011;7898;48.658;9.068;2022-10-17T05:08:43;5.93;;;4.13;;
15595;SDS011;7898;48.658;9.068;2022-10-17T05:11:14;4.73;;;4.10;;
15595;SDS011;7898;48.658;9.068;2022-10-17T05:13:42;5.57;;;3.77;;
15595;SDS011;7898;48.658;9.068;2022-10-17T05:16:09;6.97;;;4.40;;
15595;SDS011;7898;48.658;9.068;2022-10-17T05:18:37;7.20;;;3.87;;
15595;SDS011;7898;48.658;9.068;2022-10-17T05:21:05;5.87;;;3.87;;
15595;SDS011;7898;48.658;9.068;2022-10-17T05:23:32;7.70;;;4.13;;
15595;SDS011;7898;48.658;9.068;2022-10-17T05:25:59;9.27;;;4.73;;
15595;SDS011;7898;48.658;9.068;2022-10-17T05:28:26;6.10;;;4.43;;
15595;SDS011;7898;48.658;9.068;2022-10-17T05:30:53;7.33;;;4.60;;
15595;SDS011;7898;48.658;9.068;2022-10-17T05:33:21;7.23;;;4.50;;
15595;SDS011;7898;48.658;9.068;2022-10-17T05:35:48;4.87;;;4.30;;
15595;SDS011;7898;48.658;9.068;2022-10-17T05:38:17;7.00;;;3.97;;
15595;SDS011;7898;48.658;9.068;2022-10-17T05:40:46;8.47;;;3.60;;
15595;SDS011;7898;48.658;9.068;2022-10-17T05:43:13;6.70;;;3.83;;
15595;SDS011;7898;48.658;9.068;2022-10-17T05:45:40;4.90;;;4.17;;
15595;SDS011;7898;48.658;9.068;2022-10-17T05:48:07;10.33;;;4.80;;
15595;SDS011;7898;48.658;9.068;2022-10-17T05:50:34;11.63;;;5.43;;
15595;SDS011;7898;48.658;9.068;2022-10-17T05:53:01;7.13;;;4.70;;
15595;SDS011;7898;48.658;9.068;2022-10-17T05:55:30;6.77;;;3.83;;
15595;SDS011;7898;48.658;9.068;2022-10-17T05:57:58;6.77;;;3.93;;
15595;SDS011;7898;48.658;9.068;2022-10-17T06:00:25;5.23;;;3.90;;
15595;SDS011;7898;48.658;9.068;2022-10-17T06:02:52;5.77;;;3.70;;
15595;SDS011;7898;48.658;9.068;2022-10-17T06:05:20;4.23;;;3.40;;
15595;SDS011;7898;48.658;9.068;2022-10-17T06:07:47;13.57;;;4.07;;
15595;SDS011;7898;48.658;9.068;2022-10-17T06:10:16;6.10;;;3.00;;
15595;SDS011;7898;48.658;9.068;2022-10-17T06:12:45;7.00;;;2.67;;
15595;SDS011;7898;48.658;9.068;2022-10-17T06:15:14;4.78;;;2.80;;
15595;SDS011;7898;48.658;9.068;2022-10-17T06:17:41;14.13;;;12.82;;
15595;SDS011;7898;48.658;9.068;2022-10-17T06:20:09;5.68;;;3.13;;
15595;SDS011;7898;48.658;9.068;2022-10-17T06:22:36;6.28;;;2.83;;
15595;SDS011;7898;48.658;9.068;2022-10-17T06:25:03;9.38;;;6.43;;
15595;SDS011;7898;48.658;9.068;2022-10-17T06:27:31;8.38;;;4.75;;
15595;SDS011;7898;48.658;9.068;2022-10-17T06:29:59;5.05;;;3.83;;
15595;SDS011;7898;48.658;9.068;2022-10-17T06:32:26;5.32;;;3.50;;
15595;SDS011;7898;48.658;9.068;2022-10-17T06:34:55;7.20;;;3.58;;
15595;SDS011;7898;48.658;9.068;2022-10-17T06:37:29;9.88;;;3.47;;
15595;SDS011;7898;48.658;9.068;2022-10-17T06:39:57;6.35;;;3.28;;
15595;SDS011;7898;48.658;9.068;2022-10-17T06:42:26;10.18;;;4.10;;
15595;SDS011;7898;48.658;9.068;2022-10-17T06:44:53;7.60;;;3.75;;
15595;SDS011;7898;48.658;9.068;2022-10-17T06:47:22;6.43;;;4.03;;
15595;SDS011;7898;48.658;9.068;2022-10-17T06:49:49;6.22;;;3.55;;
15595;SDS011;7898;48.658;9.068;2022-10-17T06:52:19;7.93;;;4.60;;
15595;SDS011;7898;48.658;9.068;2022-10-17T06:54:46;4.22;;;3.78;;
15595;SDS011;7898;48.658;9.068;2022-10-17T06:57:13;9.70;;;4.03;;
15595;SDS011;7898;48.658;9.068;2022-10-17T06:59:40;6.38;;;3.85;;
15595;SDS011;7898;48.658;9.068;2022-10-17T07:02:07;6.60;;;4.18;;
15595;SDS011;7898;48.658;9.068;2022-10-17T07:04:36;12.52;;;3.60;;
15595;SDS011;7898;48.658;9.068;2022-10-17T07:07:05;5.55;;;3.38;;
15595;SDS011;7898;48.658;9.068;2022-10-17T07:09:32;9.38;;;3.60;;
15595;SDS011;7898;48.658;9.068;2022-10-17T07:11:59;5.20;;;3.70;;
15595;SDS011;7898;48.658;9.068;2022-10-17T07:14:26;5.15;;;3.88;;
15595;SDS011;7898;48.658;9.068;2022-10-17T07:16:56;8.77;;;2.83;;
15595;SDS011;7898;48.658;9.068;2022-10-17T07:19:23;6.40;;;2.83;;
15595;SDS011;7898;48.658;9.068;2022-10-17T07:21:55;6.10;;;2.28;;
15595;SDS011;7898;48.658;9.068;2022-10-17T07:24:22;9.80;;;2.67;;
15595;SDS011;7898;48.658;9.068;2022-10-17T07:26:49;7.57;;;2.85;;
15595;SDS011;7898;48.658;9.068;2022-10-17T07:29:16;6.93;;;2.97;;
15595;SDS011;7898;48.658;9.068;2022-10-17T07:31:43;8.45;;;3.03;;
15595;SDS011;7898;48.658;9.068;2022-10-17T07:34:12;6.32;;;2.70;;
15595;SDS011;7898;48.658;9.068;2022-10-17T07:36:40;7.40;;;2.80;;
15595;SDS011;7898;48.658;9.068;2022-10-17T07:39:11;4.80;;;2.80;;
15595;SDS011;7898;48.658;9.068;2022-10-17T07:41:38;6.28;;;2.83;;
15595;SDS011;7898;48.658;9.068;2022-10-17T07:44:05;6.40;;;2.85;;
15595;SDS011;7898;48.658;9.068;2022-10-17T07:46:32;8.55;;;3.22;;
15595;SDS011;7898;48.658;9.068;2022-10-17T07:48:59;7.22;;;2.80;;
15595;SDS011;7898;48.658;9.068;2022-10-17T07:51:26;7.55;;;3.20;;
15595;SDS011;7898;48.658;9.068;2022-10-17T07:53:53;5.75;;;2.70;;
15595;SDS011;7898;48.658;9.068;2022-10-17T07:56:21;6.15;;;3.22;;
15595;SDS011;7898;48.658;9.068;2022-10-17T07:58:48;8.27;;;2.83;;
15595;SDS011;7898;48.658;9.068;2022-10-17T08:01:16;6.15;;;2.90;;
15595;SDS011;7898;48.658;9.068;2022-10-17T08:03:43;4.53;;;2.72;;
15595;SDS011;7898;48.658;9.068;2022-10-17T08:06:11;6.32;;;2.40;;
15595;SDS011;7898;48.658;9.068;2022-10-17T08:08:39;7.32;;;2.65;;
15595;SDS011;7898;48.658;9.068;2022-10-17T08:11:07;5.63;;;2.80;;
15595;SDS011;7898;48.658;9.068;2022-10-17T08:13:36;7.22;;;2.80;;
15595;SDS011;7898;48.658;9.068;2022-10-17T08:16:05;12.27;;;3.13;;
15595;SDS011;7898;48.658;9.068;2022-10-17T08:18:37;2.95;;;2.45;;
15595;SDS011;7898;48.658;9.068;2022-10-17T08:21:05;4.55;;;2.35;;
15595;SDS011;7898;48.658;9.068;2022-10-17T08:23:33;4.45;;;2.67;;
15595;SDS011;7898;48.658;9.068;2022-10-17T08:26:02;6.72;;;2.83;;
15595;SDS011;7898;48.658;9.068;2022-10-17T08:28:30;9.27;;;2.90;;
15595;SDS011;7898;48.658;9.068;2022-10-17T08:31:04;5.20;;;2.55;;
15595;SDS011;7898;48.658;9.068;2022-10-17T08:33:33;3.35;;;2.50;;
15595;SDS011;7898;48.658;9.068;2022-10-17T08:36:01;7.22;;;2.30;;
15595;SDS011;7898;48.658;9.068;2022-10-17T08:38:29;8.52;;;2.53;;
15595;SDS011;7898;48.658;9.068;2022-10-17T08:40:58;4.03;;;2.63;;
15595;SDS011;7898;48.658;9.068;2022-10-17T08:43:31;3.25;;;2.05;;
15595;SDS011;7898;48.658;9.068;2022-10-17T08:46:09;4.70;;;2.60;;
15595;SDS011;7898;48.658;9.068;2022-10-17T08:48:39;4.30;;;2.40;;
15595;SDS011;7898;48.658;9.068;2022-10-17T08:51:10;3.65;;;2.10;;
15595;SDS011;7898;48.658;9.068;2022-10-17T08:53:42;4.65;;;2.40;;
15595;SDS011;7898;48.658;9.068;2022-10-17T08:56:15;2.88;;;2.20;;
15595;SDS011;7898;48.658;9.068;2022-10-17T08:58:44;6.47;;;2.28;;
15595;SDS011;7898;48.658;9.068;2022-10-17T09:01:23;6.57;;;2.65;;
15595;SDS011;7898;48.658;9.068;2022-10-17T09:06:58;7.32;;;2.15;;
15595;SDS011;7898;48.658;9.068;2022-10-17T09:09:33;3.67;;;2.40;;
15595;SDS011;7898;48.658;9.068;2022-10-17T09:12:14;4.40;;;2.28;;
15595;SDS011;7898;48.658;9.068;2022-10-17T09:14:48;5.15;;;2.20;;
15595;SDS011;7898;48.658;9.068;2022-10-17T09:17:29;4.97;;;2.10;;
15595;SDS011;7898;48.658;9.068;2022-10-17T09:20:03;5.47;;;2.33;;
15595;SDS011;7898;48.658;9.068;2022-10-17T09:22:36;2.35;;;2.00;;
15595;SDS011;7898;48.658;9.068;2022-10-17T09:25:09;3.42;;;1.92;;
15595;SDS011;7898;48.658;9.068;2022-10-17T09:27:39;4.40;;;2.15;;
15595;SDS011;7898;48.658;9.068;2022-10-17T09:30:19;8.32;;;2.10;;
15595;SDS011;7898;48.658;9.068;2022-10-17T09:32:54;5.50;;;2.17;;
15595;SDS011;7898;48.658;9.068;2022-10-17T09:35:21;2.50;;;2.30;;
15595;SDS011;7898;48.658;9.068;2022-10-17T09:37:49;4.93;;;2.25;;
15595;SDS011;7898;48.658;9.068;2022-10-17T09:40:18;2.83;;;1.90;;
15595;SDS011;7898;48.658;9.068;2022-10-17T09:42:48;3.17;;;1.95;;
15595;SDS011;7898;48.658;9.068;2022-10-17T09:45:16;4.13;;;2.15;;
15595;SDS011;7898;48.658;9.068;2022-10-17T09:47:50;3.42;;;2.17;;
15595;SDS011;7898;48.658;9.068;2022-10-17T09:50:25;2.97;;;2.58;;
15595;SDS011;7898;48.658;9.068;2022-10-17T09:52:54;5.63;;;2.53;;
15595;SDS011;7898;48.658;9.068;2022-10-17T09:55:27;3.35;;;1.90;;
15595;SDS011;7898;48.658;9.068;2022-10-17T09:58:06;3.20;;;2.22;;
15595;SDS011;7898;48.658;9.068;2022-10-17T10:00:35;2.25;;;1.70;;
15595;SDS011;7898;48.658;9.068;2022-10-17T10:03:09;2.40;;;2.00;;
15595;SDS011;7898;48.658;9.068;2022-10-17T10:05:40;3.53;;;2.10;;
15595;SDS011;7898;48.658;9.068;2022-10-17T10:08:12;6.45;;;2.05;;
15595;SDS011;7898;48.658;9.068;2022-10-17T10:10:41;2.97;;;1.98;;
15595;SDS011;7898;48.658;9.068;2022-10-17T10:13:16;3.85;;;2.00;;
15595;SDS011;7898;48.658;9.068;2022-10-17T10:15:45;3.40;;;1.80;;
15595;SDS011;7898;48.658;9.068;2022-10-17T10:18:31;5.00;;;2.10;;
15595;SDS011;7898;48.658;9.068;2022-10-17T10:21:02;5.45;;;1.83;;
15595;SDS011;7898;48.658;9.068;2022-10-17T10:23:38;5.55;;;2.15;;
15595;SDS011;7898;48.658;9.068;2022-10-17T10:26:13;3.90;;;1.63;;
15595;SDS011;7898;48.658;9.068;2022-10-17T10:28:52;2.95;;;2.08;;
15595;SDS011;7898;48.658;9.068;2022-10-17T10:31:25;2.30;;;1.98;;
15595;SDS011;7898;48.658;9.068;2022-10-17T10:33:59;6.13;;;2.25;;
15595;SDS011;7898;48.658;9.068;2022-10-17T10:36:44;3.05;;;2.20;;
15595;SDS011;7898;48.658;9.068;2022-10-17T10:39:24;2.10;;;1.90;;
15595;SDS011;7898;48.658;9.068;2022-10-17T10:42:06;2.40;;;2.00;;
15595;SDS011;7898;48.658;9.068;2022-10-17T10:44:43;2.47;;;2.10;;
15595;SDS011;7898;48.658;9.068;2022-10-17T10:47:16;1.67;;;1.58;;
15595;SDS011;7898;48.658;9.068;2022-10-17T10:49:47;2.03;;;1.88;;
15595;SDS011;7898;48.658;9.068;2022-10-17T10:52:19;2.90;;;1.80;;
15595;SDS011;7898;48.658;9.068;2022-10-17T10:54:56;5.00;;;1.80;;
15595;SDS011;7898;48.658;9.068;2022-10-17T10:57:29;4.78;;;2.28;;
15595;SDS011;7898;48.658;9.068;2022-10-17T11:00:02;5.93;;;2.00;;
15595;SDS011;7898;48.658;9.068;2022-10-17T11:02:37;4.82;;;1.80;;
15595;SDS011;7898;48.658;9.068;2022-10-17T11:05:13;8.73;;;2.20;;
15595;SDS011;7898;48.658;9.068;2022-10-17T11:07:44;4.57;;;2.00;;
15595;SDS011;7898;48.658;9.068;2022-10-17T11:10:18;3.80;;;1.60;;
15595;SDS011;7898;48.658;9.068;2022-10-17T11:12:51;4.03;;;1.85;;
15595;SDS011;7898;48.658;9.068;2022-10-17T11:15:24;3.28;;;1.88;;
15595;SDS011;7898;48.658;9.068;2022-10-17T11:17:56;2.15;;;1.73;;
15595;SDS011;7898;48.658;9.068;2022-10-17T11:20:35;3.95;;;1.80;;
15595;SDS011;7898;48.658;9.068;2022-10-17T11:23:13;4.30;;;2.00;;
15595;SDS011;7898;48.658;9.068;2022-10-17T11:25:45;3.45;;;1.80;;
15595;SDS011;7898;48.658;9.068;2022-10-17T11:28:15;5.60;;;2.03;;
15595;SDS011;7898;48.658;9.068;2022-10-17T11:30:45;4.10;;;1.90;;
15595;SDS011;7898;48.658;9.068;2022-10-17T11:33:19;6.05;;;1.90;;
15595;SDS011;7898;48.658;9.068;2022-10-17T11:35:52;5.60;;;1.58;;
15595;SDS011;7898;48.658;9.068;2022-10-17T11:38:28;3.35;;;1.80;;
15595;SDS011;7898;48.658;9.068;2022-10-17T11:41:01;3.08;;;1.92;;
15595;SDS011;7898;48.658;9.068;2022-10-17T11:43:31;3.40;;;1.30;;
15595;SDS011;7898;48.658;9.068;2022-10-17T11:46:04;2.50;;;1.45;;
15595;SDS011;7898;48.658;9.068;2022-10-17T11:48:38;3.75;;;1.63;;
15595;SDS011;7898;48.658;9.068;2022-10-17T11:51:12;3.50;;;1.77;;
15595;SDS011;7898;48.658;9.068;2022-10-17T11:53:50;3.97;;;1.50;;
15595;SDS011;7898;48.658;9.068;2022-10-17T11:56:26;6.38;;;1.95;;
15595;SDS011;7898;48.658;9.068;2022-10-17T11:59:06;4.53;;;1.83;;
15595;SDS011;7898;48.658;9.068;2022-10-17T12:01:51;2.83;;;1.83;;
15595;SDS011;7898;48.658;9.068;2022-10-17T12:04:24;4.18;;;1.85;;
15595;SDS011;7898;48.658;9.068;2022-10-17T12:07:12;5.63;;;1.80;;
15595;SDS011;7898;48.658;9.068;2022-10-17T12:09:45;2.17;;;1.98;;
15595;SDS011;7898;48.658;9.068;2022-10-17T12:12:25;3.30;;;1.83;;
15595;SDS011;7898;48.658;9.068;2022-10-17T12:14:53;4.82;;;1.83;;
15595;SDS011;7898;48.658;9.068;2022-10-17T12:17:40;3.22;;;1.90;;
15595;SDS011;7898;48.658;9.068;2022-10-17T12:20:16;3.67;;;1.60;;
15595;SDS011;7898;48.658;9.068;2022-10-17T12:22:54;3.97;;;1.92;;
15595;SDS011;7898;48.658;9.068;2022-10-17T12:25:23;9.18;;;2.33;;
15595;SDS011;7898;48.658;9.068;2022-10-17T12:30:50;3.25;;;2.00;;
15595;SDS011;7898;48.658;9.068;2022-10-17T12:33:20;5.50;;;1.75;;
15595;SDS011;7898;48.658;9.068;2022-10-17T12:35:51;1.73;;;1.42;;
15595;SDS011;7898;48.658;9.068;2022-10-17T12:39:39;6.78;;;1.75;;
15595;SDS011;7898;48.658;9.068;2022-10-17T12:42:45;2.03;;;1.60;;
15595;SDS011;7898;48.658;9.068;2022-10-17T12:51:14;2.40;;;1.50;;
15595;SDS011;7898;48.658;9.068;2022-10-17T12:53:44;3.20;;;1.33;;
15595;SDS011;7898;48.658;9.068;2022-10-17T12:56:18;2.35;;;1.60;;
15595;SDS011;7898;48.658;9.068;2022-10-17T12:58:47;3.65;;;1.48;;
15595;SDS011;7898;48.658;9.068;2022-10-17T13:01:17;4.32;;;1.60;;
15595;SDS011;7898;48.658;9.068;2022-10-17T13:03:52;2.05;;;1.60;;
15595;SDS011;7898;48.658;9.068;2022-10-17T13:06:20;4.85;;;1.40;;
15595;SDS011;7898;48.658;9.068;2022-10-17T13:08:53;5.00;;;1.67;;
15595;SDS011;7898;48.658;9.068;2022-10-17T13:11:26;3.05;;;1.60;;
15595;SDS011;7898;48.658;9.068;2022-10-17T13:13:56;3.25;;;1.40;;
15595;SDS011;7898;48.658;9.068;2022-10-17T13:16:28;2.33;;;1.42;;
15595;SDS011;7898;48.658;9.068;2022-10-17T13:18:57;4.32;;;1.20;;
15595;SDS011;7898;48.658;9.068;2022-10-17T13:21:25;3.20;;;1.40;;
15595;SDS011;7898;48.658;9.068;2022-10-17T13:23:53;4.68;;;1.80;;
15595;SDS011;7898;48.658;9.068;2022-10-17T13:26:21;4.32;;;1.83;;
15595;SDS011;7898;48.658;9.068;2022-10-17T13:29:03;2.25;;;1.50;;
15595;SDS011;7898;48.658;9.068;2022-10-17T13:31:32;2.88;;;1.67;;
15595;SDS011;7898;48.658;9.068;2022-10-17T13:34:01;2.58;;;1.35;;
15595;SDS011;7898;48.658;9.068;2022-10-17T13:36:29;3.53;;;1.95;;
15595;SDS011;7898;48.658;9.068;2022-10-17T13:38:59;3.63;;;1.83;;
15595;SDS011;7898;48.658;9.068;2022-10-17T13:41:32;2.53;;;1.67;;
15595;SDS011;7898;48.658;9.068;2022-10-17T13:44:01;3.20;;;1.40;;
15595;SDS011;7898;48.658;9.068;2022-10-17T13:46:37;5.60;;;1.83;;
15595;SDS011;7898;48.658;9.068;2022-10-17T13:49:09;3.65;;;1.73;;
15595;SDS011;7898;48.658;9.068;2022-10-17T13:51:42;4.60;;;2.00;;
15595;SDS011;7898;48.658;9.068;2022-10-17T13:54:17;2.85;;;1.60;;
15595;SDS011;7898;48.658;9.068;2022-10-17T13:56:57;5.35;;;1.60;;
15595;SDS011;7898;48.658;9.068;2022-10-17T13:59:27;3.60;;;1.70;;
15595;SDS011;7898;48.658;9.068;2022-10-17T14:01:59;2.85;;;1.83;;
15595;SDS011;7898;48.658;9.068;2022-10-17T14:04:27;4.35;;;1.67;;
15595;SDS011;7898;48.658;9.068;2022-10-17T14:06:54;4.80;;;1.95;;
15595;SDS011;7898;48.658;9.068;2022-10-17T14:09:22;5.88;;;1.73;;
15595;SDS011;7898;48.658;9.068;2022-10-17T14:12:01;6.20;;;2.25;;
15595;SDS011;7898;48.658;9.068;2022-10-17T14:14:34;8.80;;;1.55;;
15595;SDS011;7898;48.658;9.068;2022-10-17T14:17:01;2.45;;;1.77;;
15595;SDS011;7898;48.658;9.068;2022-10-17T14:19:31;5.47;;;1.98;;
15595;SDS011;7898;48.658;9.068;2022-10-17T14:22:13;2.80;;;1.80;;
15595;SDS011;7898;48.658;9.068;2022-10-17T14:24:44;5.05;;;1.58;;
15595;SDS011;7898;48.658;9.068;2022-10-17T14:27:25;2.53;;;1.70;;
15595;SDS011;7898;48.658;9.068;2022-10-17T14:29:56;2.67;;;2.10;;
15595;SDS011;7898;48.658;9.068;2022-10-17T14:32:27;4.28;;;1.90;;
15595;SDS011;7898;48.658;9.068;2022-10-17T14:34:56;3.83;;;2.00;;
15595;SDS011;7898;48.658;9.068;2022-10-17T14:37:30;3.85;;;1.70;;
15595;SDS011;7898;48.658;9.068;2022-10-17T14:40:01;3.75;;;2.03;;
15595;SDS011;7898;48.658;9.068;2022-10-17T14:42:32;4.72;;;2.13;;
15595;SDS011;7898;48.658;9.068;2022-10-17T14:45:07;4.50;;;2.10;;
15595;SDS011;7898;48.658;9.068;2022-10-17T14:47:38;6.68;;;1.60;;
15595;SDS011;7898;48.658;9.068;2022-10-17T14:50:07;1.95;;;1.50;;
15595;SDS011;7898;48.658;9.068;2022-10-17T14:52:57;2.67;;;1.65;;
15595;SDS011;7898;48.658;9.068;2022-10-17T14:55:26;5.53;;;1.85;;
15595;SDS011;7898;48.658;9.068;2022-10-17T14:57:56;5.57;;;1.80;;
15595;SDS011;7898;48.658;9.068;2022-10-17T15:00:24;3.97;;;2.10;;
15595;SDS011;7898;48.658;9.068;2022-10-17T15:02:53;4.25;;;1.70;;
15595;SDS011;7898;48.658;9.068;2022-10-17T15:05:21;2.53;;;1.65;;
15595;SDS011;7898;48.658;9.068;2022-10-17T15:07:49;4.30;;;1.85;;
15595;SDS011;7898;48.658;9.068;2022-10-17T15:10:21;9.27;;;1.70;;
15595;SDS011;7898;48.658;9.068;2022-10-17T15:12:57;4.55;;;1.80;;
15595;SDS011;7898;48.658;9.068;2022-10-17T15:15:27;4.55;;;1.73;;
15595;SDS011;7898;48.658;9.068;2022-10-17T15:17:54;3.42;;;1.75;;
15595;SDS011;7898;48.658;9.068;2022-10-17T15:20:22;5.40;;;2.15;;
15595;SDS011;7898;48.658;9.068;2022-10-17T15:22:52;4.07;;;1.88;;
15595;SDS011;7898;48.658;9.068;2022-10-17T15:25:19;4.00;;;1.65;;
15595;SDS011;7898;48.658;9.068;2022-10-17T15:27:46;3.03;;;2.13;;
15595;SDS011;7898;48.658;9.068;2022-10-17T15:30:15;3.33;;;2.10;;
15595;SDS011;7898;48.658;9.068;2022-10-17T15:32:48;4.07;;;2.60;;
15595;SDS011;7898;48.658;9.068;2022-10-17T15:35:15;3.42;;;1.95;;
15595;SDS011;7898;48.658;9.068;2022-10-17T15:37:43;5.95;;;2.22;;